sensor_id;sensor_type;location;lat;lon;timestamp;temperature;humidity
13440;DHT22;6792;57.698;11.946;2022-12-18T00:01:20;9.70;54.30
13440;DHT22;6792;57.698;11.946;2022-12-18T00:03:50;9.70;54.20
13440;DHT22;6792;57.698;11.946;2022-12-18T00:06:20;9.70;54.30
13440;DHT22;6792;57.698;11.946;2022-12-18T00:08:50;9.70;54.30
13440;DHT22;6792;57.698;11.946;2022-12-18T00:11:21;9.70;54.30
13440;DHT22;6792;57.698;11.946;2022-12-18T00:13:53;9.70;54.30
13440;DHT22;6792;57.698;11.946;2022-12-18T00:16:24;9.70;54.30
13440;DHT22;6792;57.698;11.946;2022-12-18T00:18:55;9.70;54.30
13440;DHT22;6792;57.698;11.946;2022-12-18T00:21:25;9.60;53.90
13440;DHT22;6792;57.698;11.946;2022-12-18T00:23:54;9.70;54.50
13440;DHT22;6792;57.698;11.946;2022-12-18T00:26:24;9.70;54.40
13440;DHT22;6792;57.698;11.946;2022-12-18T00:28:54;9.70;54.40
13440;DHT22;6792;57.698;11.946;2022-12-18T00:31:25;9.70;54.40
13440;DHT22;6792;57.698;11.946;2022-12-18T00:33:55;9.70;54.30
13440;DHT22;6792;57.698;11.946;2022-12-18T00:36:27;9.70;54.30
13440;DHT22;6792;57.698;11.946;2022-12-18T00:38:58;9.70;54.50
13440;DHT22;6792;57.698;11.946;2022-12-18T00:41:27;9.70;54.40
13440;DHT22;6792;57.698;11.946;2022-12-18T00:44:16;9.60;53.90
13440;DHT22;6792;57.698;11.946;2022-12-18T00:46:46;9.60;54.70
13440;DHT22;6792;57.698;11.946;2022-12-18T00:49:16;9.50;54.60
13440;DHT22;6792;57.698;11.946;2022-12-18T00:51:46;9.50;54.50
13440;DHT22;6792;57.698;11.946;2022-12-18T00:54:15;9.50;54.50
13440;DHT22;6792;57.698;11.946;2022-12-18T00:56:45;9.50;54.50
13440;DHT22;6792;57.698;11.946;2022-12-18T00:59:14;9.50;55.10
13440;DHT22;6792;57.698;11.946;2022-12-18T01:01:43;9.50;54.00
13440;DHT22;6792;57.698;11.946;2022-12-18T01:04:12;9.50;54.50
13440;DHT22;6792;57.698;11.946;2022-12-18T01:06:42;9.50;54.60
13440;DHT22;6792;57.698;11.946;2022-12-18T01:09:11;9.50;54.60
13440;DHT22;6792;57.698;11.946;2022-12-18T01:11:40;9.50;54.60
13440;DHT22;6792;57.698;11.946;2022-12-18T01:14:09;9.50;54.60
13440;DHT22;6792;57.698;11.946;2022-12-18T01:16:41;9.50;54.60
13440;DHT22;6792;57.698;11.946;2022-12-18T01:19:11;9.50;54.60
13440;DHT22;6792;57.698;11.946;2022-12-18T01:21:40;9.40;54.70
13440;DHT22;6792;57.698;11.946;2022-12-18T01:24:11;9.40;54.70
13440;DHT22;6792;57.698;11.946;2022-12-18T01:26:41;9.40;54.80
13440;DHT22;6792;57.698;11.946;2022-12-18T01:29:10;9.40;54.80
13440;DHT22;6792;57.698;11.946;2022-12-18T01:31:39;9.40;54.30
13440;DHT22;6792;57.698;11.946;2022-12-18T01:34:09;9.40;54.80
13440;DHT22;6792;57.698;11.946;2022-12-18T01:36:39;9.40;54.80
13440;DHT22;6792;57.698;11.946;2022-12-18T01:39:11;9.40;54.80
13440;DHT22;6792;57.698;11.946;2022-12-18T01:41:43;9.40;54.80
13440;DHT22;6792;57.698;11.946;2022-12-18T01:47:51;9.30;54.50
13440;DHT22;6792;57.698;11.946;2022-12-18T01:50:23;9.20;54.50
13440;DHT22;6792;57.698;11.946;2022-12-18T01:52:56;9.30;55.10
13440;DHT22;6792;57.698;11.946;2022-12-18T01:55:29;9.30;55.00
13440;DHT22;6792;57.698;11.946;2022-12-18T01:58:00;9.30;55.00
13440;DHT22;6792;57.698;11.946;2022-12-18T02:00:33;9.30;55.00
13440;DHT22;6792;57.698;11.946;2022-12-18T02:03:05;9.30;55.10
13440;DHT22;6792;57.698;11.946;2022-12-18T02:05:40;9.20;54.50
13440;DHT22;6792;57.698;11.946;2022-12-18T02:08:13;9.20;55.10
13440;DHT22;6792;57.698;11.946;2022-12-18T02:10:48;9.20;54.50
13440;DHT22;6792;57.698;11.946;2022-12-18T02:13:22;9.20;54.60
13440;DHT22;6792;57.698;11.946;2022-12-18T02:15:56;9.30;55.20
13440;DHT22;6792;57.698;11.946;2022-12-18T02:18:28;9.30;54.60
13440;DHT22;6792;57.698;11.946;2022-12-18T02:21:03;9.30;55.20
13440;DHT22;6792;57.698;11.946;2022-12-18T02:23:41;9.30;55.20
13440;DHT22;6792;57.698;11.946;2022-12-18T02:26:15;9.40;55.40
13440;DHT22;6792;57.698;11.946;2022-12-18T02:28:49;9.40;55.30
13440;DHT22;6792;57.698;11.946;2022-12-18T02:31:21;9.50;55.40
13440;DHT22;6792;57.698;11.946;2022-12-18T02:33:53;9.40;54.80
13440;DHT22;6792;57.698;11.946;2022-12-18T02:36:24;9.50;54.90
13440;DHT22;6792;57.698;11.946;2022-12-18T02:38:56;9.60;55.40
13440;DHT22;6792;57.698;11.946;2022-12-18T02:41:26;9.50;55.40
13440;DHT22;6792;57.698;11.946;2022-12-18T02:44:00;9.60;56.10
13440;DHT22;6792;57.698;11.946;2022-12-18T02:46:32;9.60;54.90
13440;DHT22;6792;57.698;11.946;2022-12-18T02:49:11;9.60;55.50
13440;DHT22;6792;57.698;11.946;2022-12-18T02:51:47;9.60;55.50
13440;DHT22;6792;57.698;11.946;2022-12-18T02:54:20;9.60;55.50
13440;DHT22;6792;57.698;11.946;2022-12-18T02:56:53;9.60;55.50
13440;DHT22;6792;57.698;11.946;2022-12-18T02:59:25;9.60;55.10
13440;DHT22;6792;57.698;11.946;2022-12-18T03:01:57;9.60;55.70
13440;DHT22;6792;57.698;11.946;2022-12-18T03:04:30;9.70;55.80
13440;DHT22;6792;57.698;11.946;2022-12-18T03:07:03;9.70;55.70
13440;DHT22;6792;57.698;11.946;2022-12-18T03:09:35;9.80;55.20
13440;DHT22;6792;57.698;11.946;2022-12-18T03:12:09;9.80;55.70
13440;DHT22;6792;57.698;11.946;2022-12-18T03:14:56;9.80;55.10
13440;DHT22;6792;57.698;11.946;2022-12-18T03:17:28;9.60;55.10
13440;DHT22;6792;57.698;11.946;2022-12-18T03:20:02;9.60;55.80
13440;DHT22;6792;57.698;11.946;2022-12-18T03:22:33;9.60;55.40
13440;DHT22;6792;57.698;11.946;2022-12-18T03:25:05;9.60;55.90
13440;DHT22;6792;57.698;11.946;2022-12-18T03:27:36;9.60;55.90
13440;DHT22;6792;57.698;11.946;2022-12-18T03:30:10;9.60;55.90
13440;DHT22;6792;57.698;11.946;2022-12-18T03:32:43;9.60;55.30
13440;DHT22;6792;57.698;11.946;2022-12-18T03:35:15;9.70;55.30
13440;DHT22;6792;57.698;11.946;2022-12-18T03:37:45;9.70;55.30
13440;DHT22;6792;57.698;11.946;2022-12-18T03:40:14;9.80;56.00
13440;DHT22;6792;57.698;11.946;2022-12-18T03:42:46;9.80;55.80
13440;DHT22;6792;57.698;11.946;2022-12-18T03:45:20;9.80;55.80
13440;DHT22;6792;57.698;11.946;2022-12-18T03:47:58;9.80;55.80
13440;DHT22;6792;57.698;11.946;2022-12-18T03:50:34;9.90;55.80
13440;DHT22;6792;57.698;11.946;2022-12-18T03:53:11;9.90;55.80
13440;DHT22;6792;57.698;11.946;2022-12-18T03:55:41;9.90;55.20
13440;DHT22;6792;57.698;11.946;2022-12-18T03:58:12;9.90;55.60
13440;DHT22;6792;57.698;11.946;2022-12-18T04:00:43;9.90;55.60
13440;DHT22;6792;57.698;11.946;2022-12-18T04:03:13;9.90;55.60
13440;DHT22;6792;57.698;11.946;2022-12-18T04:05:44;9.90;55.60
13440;DHT22;6792;57.698;11.946;2022-12-18T04:08:14;9.80;55.60
13440;DHT22;6792;57.698;11.946;2022-12-18T04:10:43;9.80;55.60
13440;DHT22;6792;57.698;11.946;2022-12-18T04:13:13;9.90;55.70
13440;DHT22;6792;57.698;11.946;2022-12-18T04:15:43;9.90;55.70
13440;DHT22;6792;57.698;11.946;2022-12-18T04:18:12;9.90;55.60
13440;DHT22;6792;57.698;11.946;2022-12-18T04:20:41;9.90;55.60
13440;DHT22;6792;57.698;11.946;2022-12-18T04:23:10;9.90;55.60
13440;DHT22;6792;57.698;11.946;2022-12-18T04:25:40;9.90;55.60
13440;DHT22;6792;57.698;11.946;2022-12-18T04:28:09;10.00;55.60
13440;DHT22;6792;57.698;11.946;2022-12-18T04:30:38;9.90;55.50
13440;DHT22;6792;57.698;11.946;2022-12-18T04:33:10;9.90;55.50
13440;DHT22;6792;57.698;11.946;2022-12-18T04:35:39;10.00;55.10
13440;DHT22;6792;57.698;11.946;2022-12-18T04:38:09;10.00;55.60
13440;DHT22;6792;57.698;11.946;2022-12-18T04:40:39;10.00;55.60
13440;DHT22;6792;57.698;11.946;2022-12-18T04:43:08;9.90;55.50
13440;DHT22;6792;57.698;11.946;2022-12-18T04:45:38;10.00;55.60
13440;DHT22;6792;57.698;11.946;2022-12-18T04:48:07;10.00;55.60
13440;DHT22;6792;57.698;11.946;2022-12-18T04:50:36;10.00;55.50
13440;DHT22;6792;57.698;11.946;2022-12-18T04:53:05;10.00;55.60
13440;DHT22;6792;57.698;11.946;2022-12-18T04:55:34;9.90;55.50
13440;DHT22;6792;57.698;11.946;2022-12-18T04:58:10;9.90;55.50
13440;DHT22;6792;57.698;11.946;2022-12-18T05:00:48;9.90;55.00
13440;DHT22;6792;57.698;11.946;2022-12-18T05:03:17;9.90;55.60
13440;DHT22;6792;57.698;11.946;2022-12-18T05:05:49;9.90;55.60
13440;DHT22;6792;57.698;11.946;2022-12-18T05:08:19;10.00;55.70
13440;DHT22;6792;57.698;11.946;2022-12-18T05:10:48;10.00;55.60
13440;DHT22;6792;57.698;11.946;2022-12-18T05:13:17;9.90;55.00
13440;DHT22;6792;57.698;11.946;2022-12-18T05:15:51;10.00;55.70
13440;DHT22;6792;57.698;11.946;2022-12-18T05:18:20;10.00;55.60
13440;DHT22;6792;57.698;11.946;2022-12-18T05:20:50;10.00;55.50
13440;DHT22;6792;57.698;11.946;2022-12-18T05:23:20;10.00;55.50
13440;DHT22;6792;57.698;11.946;2022-12-18T05:25:51;10.10;55.60
13440;DHT22;6792;57.698;11.946;2022-12-18T05:28:21;10.10;55.50
13440;DHT22;6792;57.698;11.946;2022-12-18T05:30:52;10.10;55.40
13440;DHT22;6792;57.698;11.946;2022-12-18T05:33:24;10.20;55.50
13440;DHT22;6792;57.698;11.946;2022-12-18T05:35:53;10.10;55.50
13440;DHT22;6792;57.698;11.946;2022-12-18T05:38:24;10.10;55.50
13440;DHT22;6792;57.698;11.946;2022-12-18T05:40:54;10.10;55.60
13440;DHT22;6792;57.698;11.946;2022-12-18T05:43:24;10.10;55.60
13440;DHT22;6792;57.698;11.946;2022-12-18T05:45:54;10.10;55.60
13440;DHT22;6792;57.698;11.946;2022-12-18T05:48:24;10.10;55.60
13440;DHT22;6792;57.698;11.946;2022-12-18T05:50:53;10.20;55.60
13440;DHT22;6792;57.698;11.946;2022-12-18T05:53:22;10.20;55.60
13440;DHT22;6792;57.698;11.946;2022-12-18T05:55:52;10.10;55.50
13440;DHT22;6792;57.698;11.946;2022-12-18T05:58:21;10.10;55.50
13440;DHT22;6792;57.698;11.946;2022-12-18T06:00:50;10.10;55.50
13440;DHT22;6792;57.698;11.946;2022-12-18T06:03:19;10.20;55.70
13440;DHT22;6792;57.698;11.946;2022-12-18T06:05:48;10.20;55.60
13440;DHT22;6792;57.698;11.946;2022-12-18T06:08:17;10.20;55.60
13440;DHT22;6792;57.698;11.946;2022-12-18T06:10:51;10.20;55.50
13440;DHT22;6792;57.698;11.946;2022-12-18T06:13:21;10.20;55.50
13440;DHT22;6792;57.698;11.946;2022-12-18T06:15:50;10.30;55.60
13440;DHT22;6792;57.698;11.946;2022-12-18T06:18:19;10.30;55.50
13440;DHT22;6792;57.698;11.946;2022-12-18T06:20:55;10.30;55.50
13440;DHT22;6792;57.698;11.946;2022-12-18T06:23:25;10.20;55.40
13440;DHT22;6792;57.698;11.946;2022-12-18T06:25:54;10.20;55.50
13440;DHT22;6792;57.698;11.946;2022-12-18T06:28:23;10.20;55.60
13440;DHT22;6792;57.698;11.946;2022-12-18T06:30:53;10.30;55.60
13440;DHT22;6792;57.698;11.946;2022-12-18T06:33:22;10.30;55.60
13440;DHT22;6792;57.698;11.946;2022-12-18T06:35:52;10.30;55.50
13440;DHT22;6792;57.698;11.946;2022-12-18T06:38:21;10.30;55.40
13440;DHT22;6792;57.698;11.946;2022-12-18T06:40:50;10.30;55.40
13440;DHT22;6792;57.698;11.946;2022-12-18T06:43:20;10.30;55.40
13440;DHT22;6792;57.698;11.946;2022-12-18T06:45:49;10.20;55.40
13440;DHT22;6792;57.698;11.946;2022-12-18T06:48:19;10.20;55.50
13440;DHT22;6792;57.698;11.946;2022-12-18T06:50:49;10.20;55.50
13440;DHT22;6792;57.698;11.946;2022-12-18T06:53:18;10.20;55.50
13440;DHT22;6792;57.698;11.946;2022-12-18T06:55:47;10.30;55.60
13440;DHT22;6792;57.698;11.946;2022-12-18T06:58:16;10.30;55.40
13440;DHT22;6792;57.698;11.946;2022-12-18T07:00:45;10.20;55.40
13440;DHT22;6792;57.698;11.946;2022-12-18T07:03:14;10.30;55.50
13440;DHT22;6792;57.698;11.946;2022-12-18T07:05:44;10.20;55.50
13440;DHT22;6792;57.698;11.946;2022-12-18T07:08:13;10.20;55.50
13440;DHT22;6792;57.698;11.946;2022-12-18T07:10:43;10.20;55.50
13440;DHT22;6792;57.698;11.946;2022-12-18T07:13:12;10.20;56.00
13440;DHT22;6792;57.698;11.946;2022-12-18T07:15:41;10.20;55.50
13440;DHT22;6792;57.698;11.946;2022-12-18T07:18:10;10.20;55.50
13440;DHT22;6792;57.698;11.946;2022-12-18T07:20:40;10.30;55.60
13440;DHT22;6792;57.698;11.946;2022-12-18T07:23:09;10.30;55.00
13440;DHT22;6792;57.698;11.946;2022-12-18T07:25:38;10.20;55.50
13440;DHT22;6792;57.698;11.946;2022-12-18T07:28:10;10.20;55.50
13440;DHT22;6792;57.698;11.946;2022-12-18T07:30:40;10.20;55.60
13440;DHT22;6792;57.698;11.946;2022-12-18T07:33:09;10.30;55.60
13440;DHT22;6792;57.698;11.946;2022-12-18T07:35:38;10.30;55.60
13440;DHT22;6792;57.698;11.946;2022-12-18T07:38:07;10.30;55.60
13440;DHT22;6792;57.698;11.946;2022-12-18T07:40:36;10.30;55.60
13440;DHT22;6792;57.698;11.946;2022-12-18T07:43:05;10.30;55.60
13440;DHT22;6792;57.698;11.946;2022-12-18T07:45:35;10.30;55.60
13440;DHT22;6792;57.698;11.946;2022-12-18T07:48:06;10.30;55.70
13440;DHT22;6792;57.698;11.946;2022-12-18T07:50:36;10.30;55.10
13440;DHT22;6792;57.698;11.946;2022-12-18T07:53:05;10.30;55.70
13440;DHT22;6792;57.698;11.946;2022-12-18T07:55:34;10.40;55.60
13440;DHT22;6792;57.698;11.946;2022-12-18T07:58:05;10.40;55.60
13440;DHT22;6792;57.698;11.946;2022-12-18T08:00:35;10.40;55.60
13440;DHT22;6792;57.698;11.946;2022-12-18T08:03:04;10.40;55.00
13440;DHT22;6792;57.698;11.946;2022-12-18T08:05:33;10.40;55.70
13440;DHT22;6792;57.698;11.946;2022-12-18T08:08:06;10.50;55.60
13440;DHT22;6792;57.698;11.946;2022-12-18T08:10:35;10.50;55.00
13440;DHT22;6792;57.698;11.946;2022-12-18T08:13:07;10.50;55.60
13440;DHT22;6792;57.698;11.946;2022-12-18T08:15:36;10.50;55.80
13440;DHT22;6792;57.698;11.946;2022-12-18T08:18:05;10.50;55.60
13440;DHT22;6792;57.698;11.946;2022-12-18T08:20:35;10.50;55.60
13440;DHT22;6792;57.698;11.946;2022-12-18T08:23:07;10.60;55.60
13440;DHT22;6792;57.698;11.946;2022-12-18T08:25:36;10.60;55.60
13440;DHT22;6792;57.698;11.946;2022-12-18T08:28:05;10.60;55.60
13440;DHT22;6792;57.698;11.946;2022-12-18T08:30:34;10.60;55.60
13440;DHT22;6792;57.698;11.946;2022-12-18T08:33:04;10.60;55.60
13440;DHT22;6792;57.698;11.946;2022-12-18T08:35:36;10.60;55.60
13440;DHT22;6792;57.698;11.946;2022-12-18T08:38:05;10.60;55.50
13440;DHT22;6792;57.698;11.946;2022-12-18T08:40:34;10.60;55.60
13440;DHT22;6792;57.698;11.946;2022-12-18T08:43:07;10.60;55.60
13440;DHT22;6792;57.698;11.946;2022-12-18T08:45:53;10.60;55.60
13440;DHT22;6792;57.698;11.946;2022-12-18T08:48:22;10.50;55.70
13440;DHT22;6792;57.698;11.946;2022-12-18T08:50:59;10.50;55.70
13440;DHT22;6792;57.698;11.946;2022-12-18T08:53:28;10.50;55.70
13440;DHT22;6792;57.698;11.946;2022-12-18T08:55:58;10.60;55.80
13440;DHT22;6792;57.698;11.946;2022-12-18T08:58:27;10.60;55.70
13440;DHT22;6792;57.698;11.946;2022-12-18T09:00:59;10.60;55.60
13440;DHT22;6792;57.698;11.946;2022-12-18T09:03:29;10.70;55.60
13440;DHT22;6792;57.698;11.946;2022-12-18T09:05:58;10.70;55.60
13440;DHT22;6792;57.698;11.946;2022-12-18T09:08:27;10.70;55.60
13440;DHT22;6792;57.698;11.946;2022-12-18T09:10:57;10.70;55.60
13440;DHT22;6792;57.698;11.946;2022-12-18T09:13:26;10.70;55.60
13440;DHT22;6792;57.698;11.946;2022-12-18T09:15:55;10.70;55.50
13440;DHT22;6792;57.698;11.946;2022-12-18T09:18:25;10.60;55.50
13440;DHT22;6792;57.698;11.946;2022-12-18T09:20:54;10.60;55.60
13440;DHT22;6792;57.698;11.946;2022-12-18T09:23:23;10.70;55.60
13440;DHT22;6792;57.698;11.946;2022-12-18T09:25:58;10.70;55.60
13440;DHT22;6792;57.698;11.946;2022-12-18T09:28:24;10.60;55.50
13440;DHT22;6792;57.698;11.946;2022-12-18T09:30:53;10.60;55.60
13440;DHT22;6792;57.698;11.946;2022-12-18T09:33:22;10.60;55.50
13440;DHT22;6792;57.698;11.946;2022-12-18T09:35:51;10.60;55.60
13440;DHT22;6792;57.698;11.946;2022-12-18T09:38:20;10.60;55.60
13440;DHT22;6792;57.698;11.946;2022-12-18T09:40:52;10.60;55.60
13440;DHT22;6792;57.698;11.946;2022-12-18T09:43:26;10.70;55.60
13440;DHT22;6792;57.698;11.946;2022-12-18T09:45:58;10.70;55.60
13440;DHT22;6792;57.698;11.946;2022-12-18T09:48:30;10.70;55.00
13440;DHT22;6792;57.698;11.946;2022-12-18T09:51:05;10.70;56.20
13440;DHT22;6792;57.698;11.946;2022-12-18T09:53:37;10.70;55.60
13440;DHT22;6792;57.698;11.946;2022-12-18T09:56:11;10.70;55.60
13440;DHT22;6792;57.698;11.946;2022-12-18T09:58:43;10.70;55.10
13440;DHT22;6792;57.698;11.946;2022-12-18T10:01:15;10.70;55.60
13440;DHT22;6792;57.698;11.946;2022-12-18T10:03:46;10.70;55.60
13440;DHT22;6792;57.698;11.946;2022-12-18T10:06:18;10.70;55.60
13440;DHT22;6792;57.698;11.946;2022-12-18T10:08:51;10.80;55.00
13440;DHT22;6792;57.698;11.946;2022-12-18T10:11:34;10.70;55.50
13440;DHT22;6792;57.698;11.946;2022-12-18T10:14:09;10.70;55.50
13440;DHT22;6792;57.698;11.946;2022-12-18T10:16:42;10.70;55.50
13440;DHT22;6792;57.698;11.946;2022-12-18T10:19:20;10.70;55.50
13440;DHT22;6792;57.698;11.946;2022-12-18T10:21:55;10.70;55.00
13440;DHT22;6792;57.698;11.946;2022-12-18T10:24:26;10.70;55.60
13440;DHT22;6792;57.698;11.946;2022-12-18T10:29:42;10.60;54.90
13440;DHT22;6792;57.698;11.946;2022-12-18T10:32:16;10.60;56.10
13440;DHT22;6792;57.698;11.946;2022-12-18T10:34:47;10.60;55.50
13440;DHT22;6792;57.698;11.946;2022-12-18T10:37:21;10.50;55.50
13440;DHT22;6792;57.698;11.946;2022-12-18T10:40:10;10.50;55.50
13440;DHT22;6792;57.698;11.946;2022-12-18T10:42:41;10.50;55.50
13440;DHT22;6792;57.698;11.946;2022-12-18T10:45:15;10.50;55.60
13440;DHT22;6792;57.698;11.946;2022-12-18T10:47:46;10.50;56.20
13440;DHT22;6792;57.698;11.946;2022-12-18T10:50:25;10.60;55.70
13440;DHT22;6792;57.698;11.946;2022-12-18T10:52:59;10.60;55.20
13440;DHT22;6792;57.698;11.946;2022-12-18T10:55:31;10.60;55.70
13440;DHT22;6792;57.698;11.946;2022-12-18T10:58:20;10.60;55.70
13440;DHT22;6792;57.698;11.946;2022-12-18T11:01:01;10.60;55.20
13440;DHT22;6792;57.698;11.946;2022-12-18T11:03:36;10.70;55.20
13440;DHT22;6792;57.698;11.946;2022-12-18T11:06:10;10.70;55.10
13440;DHT22;6792;57.698;11.946;2022-12-18T11:11:42;10.70;55.10
13440;DHT22;6792;57.698;11.946;2022-12-18T11:14:15;10.80;55.70
13440;DHT22;6792;57.698;11.946;2022-12-18T11:16:47;10.80;55.60
13440;DHT22;6792;57.698;11.946;2022-12-18T11:19:26;10.80;55.60
13440;DHT22;6792;57.698;11.946;2022-12-18T11:21:57;10.90;55.60
13440;DHT22;6792;57.698;11.946;2022-12-18T11:24:30;10.90;55.60
13440;DHT22;6792;57.698;11.946;2022-12-18T11:27:01;10.90;55.60
13440;DHT22;6792;57.698;11.946;2022-12-18T11:29:36;10.90;55.60
13440;DHT22;6792;57.698;11.946;2022-12-18T11:35:18;10.90;55.10
13440;DHT22;6792;57.698;11.946;2022-12-18T11:37:50;10.90;55.00
13440;DHT22;6792;57.698;11.946;2022-12-18T11:40:24;10.80;54.90
13440;DHT22;6792;57.698;11.946;2022-12-18T11:42:58;10.80;55.50
13440;DHT22;6792;57.698;11.946;2022-12-18T11:45:29;10.80;55.60
13440;DHT22;6792;57.698;11.946;2022-12-18T11:48:05;10.80;55.70
13440;DHT22;6792;57.698;11.946;2022-12-18T11:50:41;10.80;55.10
13440;DHT22;6792;57.698;11.946;2022-12-18T11:53:13;10.80;55.20
13440;DHT22;6792;57.698;11.946;2022-12-18T11:55:47;10.80;55.70
13440;DHT22;6792;57.698;11.946;2022-12-18T11:58:22;10.90;55.70
13440;DHT22;6792;57.698;11.946;2022-12-18T12:00:54;10.80;55.10
13440;DHT22;6792;57.698;11.946;2022-12-18T12:03:35;10.80;55.70
13440;DHT22;6792;57.698;11.946;2022-12-18T12:06:08;10.80;55.90
13440;DHT22;6792;57.698;11.946;2022-12-18T12:08:45;10.70;55.80
13440;DHT22;6792;57.698;11.946;2022-12-18T12:11:17;10.80;55.90
13440;DHT22;6792;57.698;11.946;2022-12-18T12:13:52;10.80;55.90
13440;DHT22;6792;57.698;11.946;2022-12-18T12:16:23;10.80;55.80
13440;DHT22;6792;57.698;11.946;2022-12-18T12:19:13;10.80;55.80
13440;DHT22;6792;57.698;11.946;2022-12-18T12:21:40;10.90;55.90
13440;DHT22;6792;57.698;11.946;2022-12-18T12:24:21;10.80;55.30
13440;DHT22;6792;57.698;11.946;2022-12-18T12:26:54;10.80;55.30
13440;DHT22;6792;57.698;11.946;2022-12-18T12:29:31;10.90;55.90
13440;DHT22;6792;57.698;11.946;2022-12-18T12:32:10;11.00;55.90
13440;DHT22;6792;57.698;11.946;2022-12-18T12:34:44;11.00;55.80
13440;DHT22;6792;57.698;11.946;2022-12-18T12:37:22;11.10;55.70
13440;DHT22;6792;57.698;11.946;2022-12-18T12:39:53;11.10;55.60
13440;DHT22;6792;57.698;11.946;2022-12-18T12:42:28;11.10;55.50
13440;DHT22;6792;57.698;11.946;2022-12-18T12:45:20;11.00;55.00
13440;DHT22;6792;57.698;11.946;2022-12-18T12:47:50;10.90;55.10
13440;DHT22;6792;57.698;11.946;2022-12-18T12:50:21;10.90;55.80
13440;DHT22;6792;57.698;11.946;2022-12-18T12:52:53;10.90;55.70
13440;DHT22;6792;57.698;11.946;2022-12-18T12:55:25;11.00;55.80
13440;DHT22;6792;57.698;11.946;2022-12-18T12:58:02;11.10;55.20
13440;DHT22;6792;57.698;11.946;2022-12-18T13:00:36;11.10;55.70
13440;DHT22;6792;57.698;11.946;2022-12-18T13:03:08;11.10;55.10
13440;DHT22;6792;57.698;11.946;2022-12-18T13:05:43;11.20;55.70
13440;DHT22;6792;57.698;11.946;2022-12-18T13:08:22;11.20;55.60
13440;DHT22;6792;57.698;11.946;2022-12-18T13:10:53;11.30;55.60
13440;DHT22;6792;57.698;11.946;2022-12-18T13:13:27;11.30;55.60
13440;DHT22;6792;57.698;11.946;2022-12-18T13:16:06;11.30;55.60
13440;DHT22;6792;57.698;11.946;2022-12-18T13:18:38;11.30;55.50
13440;DHT22;6792;57.698;11.946;2022-12-18T13:21:13;11.30;55.40
13440;DHT22;6792;57.698;11.946;2022-12-18T13:23:41;11.20;55.30
13440;DHT22;6792;57.698;11.946;2022-12-18T13:26:33;11.20;55.30
13440;DHT22;6792;57.698;11.946;2022-12-18T13:29:03;11.20;54.90
13440;DHT22;6792;57.698;11.946;2022-12-18T13:34:42;11.20;55.00
13440;DHT22;6792;57.698;11.946;2022-12-18T13:37:42;11.20;55.50
13440;DHT22;6792;57.698;11.946;2022-12-18T13:43:33;11.20;54.90
13440;DHT22;6792;57.698;11.946;2022-12-18T13:46:20;11.20;55.40
13440;DHT22;6792;57.698;11.946;2022-12-18T13:48:57;11.20;55.40
13440;DHT22;6792;57.698;11.946;2022-12-18T13:51:30;11.20;55.40
13440;DHT22;6792;57.698;11.946;2022-12-18T13:54:02;11.20;55.40
13440;DHT22;6792;57.698;11.946;2022-12-18T13:56:33;11.30;55.40
13440;DHT22;6792;57.698;11.946;2022-12-18T13:59:21;11.30;55.30
13440;DHT22;6792;57.698;11.946;2022-12-18T14:01:54;11.30;55.30
13440;DHT22;6792;57.698;11.946;2022-12-18T14:04:26;11.30;54.80
13440;DHT22;6792;57.698;11.946;2022-12-18T14:07:02;11.30;55.30
13440;DHT22;6792;57.698;11.946;2022-12-18T14:09:31;11.30;55.20
13440;DHT22;6792;57.698;11.946;2022-12-18T14:12:03;11.30;55.20
13440;DHT22;6792;57.698;11.946;2022-12-18T14:14:50;11.30;54.70
13440;DHT22;6792;57.698;11.946;2022-12-18T14:17:20;11.20;55.40
13440;DHT22;6792;57.698;11.946;2022-12-18T14:19:51;11.20;54.80
13440;DHT22;6792;57.698;11.946;2022-12-18T14:22:21;11.20;54.80
13440;DHT22;6792;57.698;11.946;2022-12-18T14:25:13;11.20;55.20
13440;DHT22;6792;57.698;11.946;2022-12-18T14:27:44;11.20;54.70
13440;DHT22;6792;57.698;11.946;2022-12-18T14:30:30;11.20;55.30
13440;DHT22;6792;57.698;11.946;2022-12-18T14:33:08;11.20;54.60
13440;DHT22;6792;57.698;11.946;2022-12-18T14:35:38;11.10;54.60
13440;DHT22;6792;57.698;11.946;2022-12-18T14:38:23;11.10;55.10
13440;DHT22;6792;57.698;11.946;2022-12-18T14:40:58;11.00;55.10
13440;DHT22;6792;57.698;11.946;2022-12-18T14:43:28;10.90;55.20
13440;DHT22;6792;57.698;11.946;2022-12-18T14:45:58;10.90;55.30
13440;DHT22;6792;57.698;11.946;2022-12-18T14:48:38;10.90;55.30
13440;DHT22;6792;57.698;11.946;2022-12-18T14:51:14;11.00;54.80
13440;DHT22;6792;57.698;11.946;2022-12-18T14:53:46;11.00;55.30
13440;DHT22;6792;57.698;11.946;2022-12-18T14:56:18;11.00;54.70
13440;DHT22;6792;57.698;11.946;2022-12-18T14:58:50;11.00;54.80
13440;DHT22;6792;57.698;11.946;2022-12-18T15:01:26;11.00;55.30
13440;DHT22;6792;57.698;11.946;2022-12-18T15:03:56;11.00;55.20
13440;DHT22;6792;57.698;11.946;2022-12-18T15:06:29;11.00;55.20
13440;DHT22;6792;57.698;11.946;2022-12-18T15:09:00;10.90;55.20
13440;DHT22;6792;57.698;11.946;2022-12-18T15:11:36;10.90;55.20
13440;DHT22;6792;57.698;11.946;2022-12-18T15:14:34;10.80;54.60
13440;DHT22;6792;57.698;11.946;2022-12-18T15:17:05;10.90;55.40
13440;DHT22;6792;57.698;11.946;2022-12-18T15:19:38;10.80;55.50
13440;DHT22;6792;57.698;11.946;2022-12-18T15:22:21;10.80;55.40
13440;DHT22;6792;57.698;11.946;2022-12-18T15:24:52;10.80;55.40
13440;DHT22;6792;57.698;11.946;2022-12-18T15:27:30;10.90;55.50
13440;DHT22;6792;57.698;11.946;2022-12-18T15:30:21;10.90;55.40
13440;DHT22;6792;57.698;11.946;2022-12-18T15:32:51;10.90;54.90
13440;DHT22;6792;57.698;11.946;2022-12-18T15:35:25;10.80;55.50
13440;DHT22;6792;57.698;11.946;2022-12-18T15:37:54;10.80;54.90
13440;DHT22;6792;57.698;11.946;2022-12-18T15:40:24;10.90;55.50
13440;DHT22;6792;57.698;11.946;2022-12-18T15:45:37;10.90;55.00
13440;DHT22;6792;57.698;11.946;2022-12-18T15:48:17;10.90;55.40
13440;DHT22;6792;57.698;11.946;2022-12-18T15:50:46;11.00;55.50
13440;DHT22;6792;57.698;11.946;2022-12-18T15:53:15;10.90;55.40
13440;DHT22;6792;57.698;11.946;2022-12-18T15:55:45;10.80;55.40
13440;DHT22;6792;57.698;11.946;2022-12-18T15:58:31;10.80;55.00
13440;DHT22;6792;57.698;11.946;2022-12-18T16:01:01;10.80;55.80
13440;DHT22;6792;57.698;11.946;2022-12-18T16:03:34;10.80;55.60
13440;DHT22;6792;57.698;11.946;2022-12-18T16:06:05;10.90;55.70
13440;DHT22;6792;57.698;11.946;2022-12-18T16:08:35;10.90;55.70
13440;DHT22;6792;57.698;11.946;2022-12-18T16:11:09;10.80;55.50
13440;DHT22;6792;57.698;11.946;2022-12-18T16:13:43;10.80;55.60
13440;DHT22;6792;57.698;11.946;2022-12-18T16:16:12;10.80;55.60
13440;DHT22;6792;57.698;11.946;2022-12-18T16:18:41;10.80;55.60
13440;DHT22;6792;57.698;11.946;2022-12-18T16:21:13;10.80;55.60
13440;DHT22;6792;57.698;11.946;2022-12-18T16:23:42;10.80;55.60
13440;DHT22;6792;57.698;11.946;2022-12-18T16:26:11;10.80;55.60
13440;DHT22;6792;57.698;11.946;2022-12-18T16:28:43;10.80;55.60